Time;durP1;ratioP1;P1;durP2;ratioP2;P2;SDS_P1;SDS_P2;PMS_P1;PMS_P2;Temp;Humidity;BMP_temperature;BMP_pressure;BME280_temperature;BME280_humidity;BME280_pressure;Samples;Min_cycle;Max_cycle;Signal;HPM_P1;HPM_P2
2021/06/17 00:00:27;;;;;;;1999.90;999.90;;;23.70;99.90;;;;;;4995028;28;20198;-64
2021/06/17 00:02:54;;;;;;;1999.90;999.90;;;23.70;99.90;;;;;;4994925;28;20408;-64
2021/06/17 00:05:21;;;;;;;1999.90;999.90;;;23.40;99.90;;;;;;4994536;28;20431;-64
2021/06/17 00:07:47;;;;;;;1999.90;999.90;;;23.30;99.90;;;;;;4994734;28;20409;-65
2021/06/17 00:10:16;;;;;;;1999.90;999.90;;;23.40;99.90;;;;;;4993898;28;20506;-64
2021/06/17 00:12:42;;;;;;;1999.90;999.90;;;23.40;99.90;;;;;;4994734;28;20910;-63
2021/06/17 00:15:10;;;;;;;1999.90;999.90;;;23.40;99.90;;;;;;4994356;28;20433;-65
2021/06/17 00:17:36;;;;;;;1999.90;999.90;;;23.40;99.90;;;;;;4994668;28;20173;-64
2021/06/17 00:20:03;;;;;;;1999.90;999.90;;;23.40;99.90;;;;;;4994540;28;20414;-64
2021/06/17 00:22:29;;;;;;;1999.90;999.90;;;23.30;99.90;;;;;;4994475;28;20650;-65
2021/06/17 00:24:54;;;;;;;1999.90;999.90;;;23.30;99.90;;;;;;4994038;28;20399;-64
2021/06/17 00:27:21;;;;;;;1999.90;999.90;;;23.30;99.90;;;;;;4994566;28;20174;-64
2021/06/17 00:29:47;;;;;;;1999.90;999.90;;;23.10;99.90;;;;;;4994318;28;20204;-66
2021/06/17 00:32:12;;;;;;;1999.90;999.90;;;23.00;99.90;;;;;;4994292;28;20416;-64
2021/06/17 00:34:38;;;;;;;1999.90;999.90;;;23.10;99.90;;;;;;4993966;28;20189;-64
2021/06/17 00:37:04;;;;;;;1999.90;999.90;;;23.10;99.90;;;;;;4994265;28;20176;-65
2021/06/17 00:39:29;;;;;;;1999.90;999.90;;;23.00;99.90;;;;;;4994195;28;20275;-64
2021/06/17 00:41:55;;;;;;;1999.90;999.90;;;23.00;99.90;;;;;;4994212;28;20515;-64
2021/06/17 00:44:21;;;;;;;1999.90;999.90;;;23.00;99.90;;;;;;4993803;28;20245;-64
2021/06/17 00:46:46;;;;;;;1999.90;999.90;;;23.00;99.90;;;;;;4994082;28;20184;-63
2021/06/17 00:49:12;;;;;;;1999.90;999.90;;;23.00;99.90;;;;;;4993907;28;20599;-64
2021/06/17 00:51:37;;;;;;;1999.90;999.90;;;23.10;99.90;;;;;;4993949;28;20173;-65
2021/06/17 00:54:03;;;;;;;1999.90;999.90;;;23.10;99.90;;;;;;4993643;28;20255;-64
2021/06/17 00:56:29;;;;;;;1999.90;999.90;;;23.10;99.90;;;;;;4993702;28;20710;-63
2021/06/17 00:58:57;;;;;;;1999.90;999.90;;;23.10;99.90;;;;;;4993876;28;20173;-65
2021/06/17 01:01:23;;;;;;;1999.90;999.90;;;23.20;99.90;;;;;;4993816;28;20427;-64
2021/06/17 01:03:49;;;;;;;1999.90;999.90;;;23.10;99.90;;;;;;4993535;28;20788;-63
2021/06/17 01:06:15;;;;;;;1999.90;999.90;;;23.10;99.90;;;;;;4993547;28;20193;-64
2021/06/17 01:08:46;;;;;;;1999.90;999.90;;;23.10;99.90;;;;;;4993540;28;20456;-65
2021/06/17 01:11:23;;;;;;;1999.90;999.90;;;23.20;99.90;;;;;;4993541;28;20201;-66
2021/06/17 01:14:15;;;;;;;1999.90;999.90;;;23.20;99.90;;;;;;4993385;28;20419;-64
2021/06/17 01:16:48;;;;;;;1999.90;999.90;;;23.10;99.90;;;;;;4990510;28;20425;-65
2021/06/17 01:19:47;;;;;;;1999.90;999.90;;;23.10;99.90;;;;;;4993470;28;20404;-65
2021/06/17 01:22:33;;;;;;;1999.90;999.90;;;23.00;99.90;;;;;;4993485;28;20888;-65
2021/06/17 01:25:13;;;;;;;1999.90;999.90;;;22.90;99.90;;;;;;4992988;28;20778;-64
2021/06/17 01:28:06;;;;;;;1999.90;999.90;;;22.80;99.90;;;;;;4993300;28;20423;-63
2021/06/17 01:30:43;;;;;;;1999.90;999.90;;;22.70;99.90;;;;;;4993251;28;20504;-63
2021/06/17 01:33:09;;;;;;;1999.90;999.90;;;22.50;99.90;;;;;;4993162;28;20437;-65
2021/06/17 01:35:40;;;;;;;1999.90;999.90;;;22.30;99.90;;;;;;4992776;28;20438;-64
2021/06/17 01:38:07;;;;;;;1999.90;999.90;;;22.20;99.90;;;;;;4993112;28;20400;-64
2021/06/17 01:40:35;;;;;;;1999.90;999.90;;;22.20;99.90;;;;;;4993146;28;20448;-65
2021/06/17 01:43:02;;;;;;;1999.90;999.90;;;22.20;99.90;;;;;;4993233;28;20414;-64
2021/06/17 01:45:28;;;;;;;1999.90;999.90;;;22.10;99.90;;;;;;4992678;28;20496;-64
2021/06/17 01:47:54;;;;;;;1999.90;999.90;;;22.10;99.90;;;;;;4992924;28;20411;-64
2021/06/17 01:50:25;;;;;;;1999.90;999.90;;;22.00;99.90;;;;;;4992923;28;20453;-64
2021/06/17 01:52:52;;;;;;;1999.90;999.90;;;21.90;99.90;;;;;;4992884;28;20417;-64
2021/06/17 01:55:19;;;;;;;1999.90;999.90;;;21.90;99.90;;;;;;4992393;28;20440;-64
2021/06/17 01:57:46;;;;;;;1999.90;999.90;;;21.80;99.90;;;;;;4992839;28;20394;-64
2021/06/17 02:00:12;;;;;;;1999.90;999.90;;;21.80;99.90;;;;;;4992787;28;20464;-64
2021/06/17 02:02:39;;;;;;;1999.90;999.90;;;21.90;99.90;;;;;;4992739;28;20969;-64
2021/06/17 02:05:07;;;;;;;1999.90;999.90;;;21.90;99.90;;;;;;4992560;28;20806;-64
2021/06/17 02:07:33;;;;;;;1999.90;999.90;;;21.90;99.90;;;;;;4992644;28;20441;-63
2021/06/17 02:10:00;;;;;;;1999.90;999.90;;;21.90;99.90;;;;;;4992504;28;20481;-64
2021/06/17 02:12:26;;;;;;;1999.90;999.90;;;21.90;99.90;;;;;;4992619;28;20414;-64
2021/06/17 02:14:52;;;;;;;1999.90;999.90;;;21.90;99.90;;;;;;4992216;28;20810;-64
2021/06/17 02:17:20;;;;;;;1999.90;999.90;;;21.80;99.90;;;;;;4992592;28;20177;-64
2021/06/17 02:19:49;;;;;;;1999.90;999.90;;;21.90;99.90;;;;;;4992573;28;20787;-64
2021/06/17 02:22:15;;;;;;;1999.90;999.90;;;21.90;99.90;;;;;;4992522;28;20452;-64
2021/06/17 02:24:45;;;;;;;1999.90;999.90;;;21.90;99.90;;;;;;4992198;28;20494;-64
2021/06/17 02:27:17;;;;;;;1999.90;999.90;;;22.00;99.90;;;;;;4992466;28;20416;-64
2021/06/17 02:29:47;;;;;;;1999.90;999.90;;;22.00;99.90;;;;;;4992393;28;20473;-64
2021/06/17 02:32:21;;;;;;;1999.90;999.90;;;22.00;99.90;;;;;;4993520;28;20421;-64
2021/06/17 02:34:48;;;;;;;1999.90;999.90;;;21.90;99.90;;;;;;4996119;28;20515;-64
2021/06/17 02:37:19;;;;;;;1999.90;999.90;;;21.80;99.90;;;;;;4996420;28;20407;-65
2021/06/17 02:39:49;;;;;;;1999.90;999.90;;;21.80;99.90;;;;;;4996322;28;20434;-66
2021/06/17 02:42:16;;;;;;;1999.90;999.90;;;21.80;99.90;;;;;;4996376;28;20759;-65
2021/06/17 02:44:43;;;;;;;1999.90;999.90;;;21.90;99.90;;;;;;4995964;28;20414;-66
2021/06/17 02:47:10;;;;;;;1999.90;999.90;;;21.90;99.90;;;;;;4996229;28;20915;-65
2021/06/17 02:49:38;;;;;;;1999.90;999.90;;;22.00;99.90;;;;;;4996134;28;20459;-66
2021/06/17 02:52:04;;;;;;;1999.90;999.90;;;21.90;99.90;;;;;;4996152;28;20502;-66
2021/06/17 02:54:29;;;;;;;1999.90;999.90;;;21.80;99.90;;;;;;4995603;28;20955;-66
2021/06/17 02:57:21;;;;;;;1999.90;999.90;;;21.70;99.90;;;;;;4996156;28;20419;-65
2021/06/17 02:59:59;;;;;;;1999.90;999.90;;;21.60;99.90;;;;;;4996045;28;20776;-66
2021/06/17 03:02:35;;;;;;;1999.90;999.90;;;21.50;99.90;;;;;;4995999;28;20414;-64
2021/06/17 03:05:19;;;;;;;1999.90;999.90;;;21.30;99.90;;;;;;4995868;28;20431;-65
2021/06/17 03:07:58;;;;;;;1999.90;999.90;;;21.20;99.90;;;;;;4995832;28;20437;-65
2021/06/17 03:10:24;;;;;;;1999.90;999.90;;;21.20;99.90;;;;;;4995820;28;20545;-66
2021/06/17 03:12:52;;;;;;;1999.90;999.90;;;21.20;99.90;;;;;;4995789;28;20501;-65
2021/06/17 03:15:18;;;;;;;1999.90;999.90;;;21.20;99.90;;;;;;4995381;28;20201;-66
2021/06/17 03:17:46;;;;;;;1999.90;999.90;;;21.10;99.90;;;;;;4995670;28;20416;-67
2021/06/17 03:20:13;;;;;;;1999.90;999.90;;;21.10;99.90;;;;;;4995664;28;20411;-66
2021/06/17 03:22:44;;;;;;;1999.90;999.90;;;21.10;99.90;;;;;;4995537;28;20899;-64
2021/06/17 03:25:15;;;;;;;1999.90;999.90;;;21.10;99.90;;;;;;4995578;28;20917;-66
2021/06/17 03:27:42;;;;;;;1999.90;999.90;;;21.10;99.90;;;;;;4995494;28;20438;-66
2021/06/17 03:30:09;;;;;;;1999.90;999.90;;;21.20;99.90;;;;;;4995535;28;20466;-66
2021/06/17 03:32:37;;;;;;;1999.90;999.90;;;21.20;99.90;;;;;;4995665;28;20826;-66
2021/06/17 03:35:04;;;;;;;1999.90;999.90;;;21.10;99.90;;;;;;4995134;28;20478;-65
2021/06/17 03:37:31;;;;;;;1999.90;999.90;;;21.10;99.90;;;;;;4995438;28;20406;-66
2021/06/17 03:39:59;;;;;;;1999.90;999.90;;;21.10;99.90;;;;;;4995327;28;20443;-65
2021/06/17 03:42:26;;;;;;;1999.90;999.90;;;21.10;99.90;;;;;;4995254;28;20402;-66
2021/06/17 03:44:54;;;;;;;1999.90;999.90;;;21.10;99.90;;;;;;4993506;28;20920;-65
2021/06/17 03:47:23;;;;;;;1999.90;999.90;;;21.10;99.90;;;;;;4995210;28;20418;-65
2021/06/17 03:49:51;;;;;;;1999.90;999.90;;;21.20;99.90;;;;;;4995142;28;20855;-67
2021/06/17 03:52:17;;;;;;;1999.90;999.90;;;21.20;99.90;;;;;;4995014;28;20503;-66
2021/06/17 03:54:44;;;;;;;1999.90;999.90;;;21.20;99.90;;;;;;4995005;28;20421;-64
2021/06/17 03:57:10;;;;;;;1999.90;999.90;;;21.30;99.90;;;;;;4995061;28;20507;-64
2021/06/17 03:59:41;;;;;;;1999.90;999.90;;;21.20;99.90;;;;;;4994924;28;20409;-64
2021/06/17 04:02:07;;;;;;;1999.90;999.90;;;21.20;99.90;;;;;;4995055;28;20404;-65
2021/06/17 04:04:33;;;;;;;1999.90;999.90;;;21.30;99.90;;;;;;4994462;28;20436;-64
2021/06/17 04:07:01;;;;;;;1999.90;999.90;;;21.40;99.90;;;;;;4995477;28;20493;-64
2021/06/17 04:09:32;;;;;;;1999.90;999.90;;;21.30;99.90;;;;;;4994694;28;20824;-64
2021/06/17 04:12:01;;;;;;;1999.90;999.90;;;21.40;99.90;;;;;;4994725;28;20409;-63
2021/06/17 04:14:29;;;;;;;1999.90;999.90;;;21.40;99.90;;;;;;4994357;28;20421;-64
2021/06/17 04:16:55;;;;;;;1999.90;999.90;;;21.50;99.90;;;;;;4994599;28;20411;-65
2021/06/17 04:19:28;;;;;;;1999.90;999.90;;;21.60;99.90;;;;;;4994573;28;20416;-65
2021/06/17 04:21:58;;;;;;;1999.90;999.90;;;21.60;99.90;;;;;;4994499;28;20532;-64
2021/06/17 04:24:25;;;;;;;1999.90;999.90;;;21.70;99.90;;;;;;4992998;28;20418;-64
2021/06/17 04:26:53;;;;;;;1999.90;999.90;;;21.70;99.90;;;;;;4994583;28;20416;-65
2021/06/17 04:29:20;;;;;;;1999.90;999.90;;;21.80;99.90;;;;;;4994309;28;20428;-65
2021/06/17 04:31:49;;;;;;;1999.90;999.90;;;21.80;99.90;;;;;;4994363;28;20454;-63
2021/06/17 04:34:15;;;;;;;1999.90;999.90;;;21.90;99.90;;;;;;4993917;28;20479;-63
2021/06/17 04:36:41;;;;;;;1999.90;999.90;;;21.90;99.90;;;;;;4994242;28;20411;-64
2021/06/17 04:39:07;;;;;;;1999.90;999.90;;;21.90;99.90;;;;;;4994259;28;20414;-65
2021/06/17 04:41:35;;;;;;;1999.90;999.90;;;22.00;99.90;;;;;;4994431;28;20421;-64
2021/06/17 04:44:02;;;;;;;1999.90;999.90;;;22.10;99.90;;;;;;4993832;28;20416;-65
2021/06/17 04:46:30;;;;;;;1999.90;999.90;;;22.10;99.90;;;;;;4994054;28;20484;-65
2021/06/17 04:48:56;;;;;;;1999.90;999.90;;;22.20;99.90;;;;;;4993961;28;20803;-66
2021/06/17 04:51:23;;;;;;;1999.90;999.90;;;22.30;99.90;;;;;;4993832;28;20465;-65
2021/06/17 04:53:52;;;;;;;1999.90;999.90;;;22.40;99.90;;;;;;4993759;28;20393;-66
2021/06/17 04:56:18;;;;;;;1999.90;999.90;;;22.50;99.90;;;;;;4993463;28;20452;-65
2021/06/17 04:58:47;;;;;;;1999.90;999.90;;;22.60;99.90;;;;;;4993954;28;20505;-65
2021/06/17 05:01:16;;;;;;;1999.90;999.90;;;22.70;99.90;;;;;;4993796;28;20448;-67
2021/06/17 05:03:42;;;;;;;1999.90;999.90;;;22.70;99.90;;;;;;4993775;28;20446;-65
2021/06/17 05:06:09;;;;;;;1999.90;999.90;;;22.70;99.90;;;;;;4993651;28;20523;-65
2021/06/17 05:11:20;;;;;;;1999.90;999.90;;;22.80;99.90;;;;;;4993740;28;20462;-64
2021/06/17 05:13:45;;;;;;;1999.90;999.90;;;22.90;99.90;;;;;;4993311;28;20390;-66
2021/06/17 05:16:11;;;;;;;1999.90;999.90;;;23.00;99.90;;;;;;4993585;28;20692;-66
2021/06/17 05:18:37;;;;;;;1999.90;999.90;;;23.20;99.90;;;;;;4993566;28;20602;-64
2021/06/17 05:21:03;;;;;;;1999.90;999.90;;;23.30;99.90;;;;;;4993564;28;20185;-64
2021/06/17 05:23:28;;;;;;;1999.90;999.90;;;23.50;99.90;;;;;;4993421;28;20173;-64
2021/06/17 05:25:56;;;;;;;1999.90;999.90;;;23.60;99.90;;;;;;4993057;28;20470;-65
2021/06/17 05:28:24;;;;;;;1999.90;999.90;;;23.80;99.90;;;;;;4993171;28;20220;-65
2021/06/17 05:30:55;;;;;;;1999.90;999.90;;;23.90;99.90;;;;;;4993131;28;20427;-65
2021/06/17 05:33:21;;;;;;;1999.90;999.90;;;24.10;99.90;;;;;;4993271;28;20413;-64
2021/06/17 05:35:47;;;;;;;1999.90;999.90;;;24.10;99.90;;;;;;4992999;28;20572;-64
2021/06/17 05:38:17;;;;;;;1999.90;999.90;;;24.30;99.90;;;;;;4993138;28;20390;-64
2021/06/17 05:40:43;;;;;;;1999.90;999.90;;;24.40;99.90;;;;;;4993104;28;20420;-64
2021/06/17 05:43:09;;;;;;;1999.90;999.90;;;24.40;99.90;;;;;;4992941;28;20390;-64
2021/06/17 05:45:34;;;;;;;1999.90;999.90;;;24.40;99.90;;;;;;4992733;28;20225;-66
2021/06/17 05:48:00;;;;;;;1999.90;999.90;;;24.50;99.90;;;;;;4992916;28;20177;-66
2021/06/17 05:50:25;;;;;;;1999.90;999.90;;;24.50;99.90;;;;;;4992875;28;20552;-65
2021/06/17 05:52:51;;;;;;;1999.90;999.90;;;24.70;99.90;;;;;;4992884;28;20174;-65
2021/06/17 05:55:17;;;;;;;1999.90;999.90;;;24.70;99.90;;;;;;4992392;28;20251;-65
2021/06/17 05:57:42;;;;;;;1999.90;999.90;;;24.80;99.90;;;;;;4992858;28;20205;-66
2021/06/17 06:00:09;;;;;;;1999.90;999.90;;;24.80;99.90;;;;;;4992785;28;20181;-66
2021/06/17 06:02:35;;;;;;;1999.90;999.90;;;24.90;99.90;;;;;;4992780;28;20569;-65
2021/06/17 06:05:01;;;;;;;1999.90;999.90;;;25.00;99.90;;;;;;4992324;28;20855;-65
2021/06/17 06:07:27;;;;;;;1999.90;999.90;;;25.10;99.90;;;;;;4992103;28;20470;-65
2021/06/17 06:09:52;;;;;;;1999.90;999.90;;;25.20;99.90;;;;;;4992645;28;20730;-66
2021/06/17 06:12:18;;;;;;;1999.90;999.90;;;25.40;99.90;;;;;;4992644;28;20655;-65
2021/06/17 06:14:44;;;;;;;1999.90;999.90;;;25.40;99.90;;;;;;4992262;28;20196;-66
2021/06/17 06:17:09;;;;;;;1999.90;999.90;;;25.40;99.90;;;;;;4992682;28;20187;-65
2021/06/17 06:19:36;;;;;;;1999.90;999.90;;;25.40;99.90;;;;;;4992612;28;20232;-65
2021/06/17 06:22:06;;;;;;;1999.90;999.90;;;25.40;99.90;;;;;;4992563;28;20237;-66
2021/06/17 06:24:34;;;;;;;1999.90;999.90;;;25.30;99.90;;;;;;4992224;28;20431;-65
2021/06/17 06:27:01;;;;;;;1999.90;999.90;;;25.30;99.90;;;;;;4992455;28;20438;-65
2021/06/17 06:29:28;;;;;;;1999.90;999.90;;;25.20;99.90;;;;;;4992436;28;20495;-66
2021/06/17 06:31:54;;;;;;;1999.90;999.90;;;25.30;99.90;;;;;;4992365;28;20496;-65
2021/06/17 06:34:20;;;;;;;1999.90;999.90;;;25.30;99.90;;;;;;4992115;28;20765;-65
2021/06/17 06:36:46;;;;;;;1999.90;999.90;;;25.20;99.90;;;;;;4992376;28;20384;-65
2021/06/17 06:39:11;;;;;;;1999.90;999.90;;;25.20;99.90;;;;;;4992424;28;20193;-66
2021/06/17 06:41:39;;;;;;;1999.90;999.90;;;25.30;99.90;;;;;;4992337;28;20173;-66
2021/06/17 06:44:05;;;;;;;1999.90;999.90;;;25.40;99.90;;;;;;4992057;28;20166;-66
2021/06/17 06:46:30;;;;;;;1999.90;999.90;;;25.60;99.90;;;;;;4992201;28;20407;-66
2021/06/17 06:48:56;;;;;;;1999.90;999.90;;;25.70;99.90;;;;;;4992450;28;20174;-66
2021/06/17 06:51:21;;;;;;;1999.90;999.90;;;25.80;99.90;;;;;;4992353;28;20280;-66
2021/06/17 06:53:47;;;;;;;1999.90;999.90;;;25.90;99.90;;;;;;4992081;28;20776;-65
2021/06/17 06:56:13;;;;;;;1999.90;999.90;;;26.00;99.90;;;;;;4991978;28;20201;-65
2021/06/17 06:58:38;;;;;;;1999.90;999.90;;;26.10;99.90;;;;;;4992247;28;20595;-66
2021/06/17 07:01:04;;;;;;;1999.90;999.90;;;26.20;99.90;;;;;;4992178;28;20224;-66
2021/06/17 07:03:29;;;;;;;1999.90;999.90;;;26.30;99.90;;;;;;4992192;28;20178;-66
2021/06/17 07:05:55;;;;;;;1999.90;999.90;;;26.40;99.90;;;;;;4991840;28;20639;-66
2021/06/17 07:08:21;;;;;;;1999.90;999.90;;;26.60;99.90;;;;;;4992399;28;20173;-66
2021/06/17 07:10:47;;;;;;;1999.90;999.90;;;26.70;99.90;;;;;;4991976;28;20285;-65
2021/06/17 07:13:14;;;;;;;1999.90;999.90;;;26.90;99.90;;;;;;4992104;28;20174;-65
2021/06/17 07:15:40;;;;;;;1999.90;999.90;;;27.00;99.90;;;;;;4991723;28;20421;-66
2021/06/17 07:18:06;;;;;;;1999.90;999.90;;;27.10;99.90;;;;;;4992894;28;20840;-66
2021/06/17 07:20:32;;;;;;;1999.90;999.90;;;27.20;99.90;;;;;;4995823;28;20888;-66
2021/06/17 07:22:58;;;;;;;1999.90;999.90;;;27.20;99.90;;;;;;4995606;28;20475;-65
2021/06/17 07:25:25;;;;;;;1999.90;999.90;;;27.20;99.90;;;;;;4995272;28;20205;-67
2021/06/17 07:27:51;;;;;;;1999.90;999.90;;;27.30;99.90;;;;;;4995605;28;20173;-65
2021/06/17 07:30:17;;;;;;;1999.90;999.90;;;27.40;99.90;;;;;;4995649;28;20522;-65
2021/06/17 07:32:44;;;;;;;1999.90;999.90;;;27.50;99.90;;;;;;4995554;28;20833;-65
2021/06/17 07:35:10;;;;;;;1999.90;999.90;;;27.60;99.90;;;;;;4995224;28;20776;-66
2021/06/17 07:37:37;;;;;;;1999.90;999.90;;;27.70;99.90;;;;;;4995419;28;20383;-66
2021/06/17 07:40:04;;;;;;;1999.90;999.90;;;27.70;99.90;;;;;;4995392;28;20391;-66
2021/06/17 07:42:30;;;;;;;1999.90;999.90;;;27.80;99.90;;;;;;4995310;28;20391;-65
2021/06/17 07:44:56;;;;;;;1999.90;999.90;;;27.90;99.90;;;;;;4994870;28;20885;-65
2021/06/17 07:47:21;;;;;;;1999.90;999.90;;;28.00;99.90;;;;;;4995352;28;20181;-66
2021/06/17 07:49:47;;;;;;;1999.90;999.90;;;28.10;99.90;;;;;;4995163;28;20234;-64
2021/06/17 07:52:13;;;;;;;1999.90;999.90;;;28.10;99.90;;;;;;4995157;28;20228;-66
2021/06/17 07:54:38;;;;;;;1999.90;999.90;;;28.20;99.90;;;;;;4994694;28;20209;-68
2021/06/17 07:57:04;;;;;;;1999.90;999.90;;;28.20;99.90;;;;;;4995131;28;20212;-68
2021/06/17 07:59:30;;;;;;;1999.90;999.90;;;28.30;99.90;;;;;;4995028;28;20174;-67
2021/06/17 08:01:55;;;;;;;1999.90;999.90;;;28.40;99.90;;;;;;4995036;28;20413;-66
2021/06/17 08:04:22;;;;;;;1999.90;999.90;;;28.50;99.90;;;;;;4994681;28;20180;-68
2021/06/17 08:06:48;;;;;;;1999.90;999.90;;;28.50;99.90;;;;;;4994868;28;20192;-66
2021/06/17 08:09:19;;;;;;;1999.90;999.90;;;28.60;99.90;;;;;;4994825;28;20395;-67
2021/06/17 08:11:49;;;;;;;1999.90;999.90;;;28.60;99.90;;;;;;4994824;28;20252;-67
2021/06/17 08:14:28;;;;;;;1999.90;999.90;;;28.80;99.90;;;;;;4994380;28;20415;-67
2021/06/17 08:16:55;;;;;;;1999.90;999.90;;;28.90;99.90;;;;;;4994493;28;20968;-67
2021/06/17 08:19:28;;;;;;;1999.90;999.90;;;28.90;99.90;;;;;;4994254;28;20386;-67
2021/06/17 08:21:53;;;;;;;1999.90;999.90;;;29.00;99.90;;;;;;4994292;28;20387;-67
2021/06/17 08:24:19;;;;;;;1999.90;999.90;;;29.10;99.90;;;;;;4994282;28;20427;-69
2021/06/17 08:26:46;;;;;;;1999.90;999.90;;;29.30;99.90;;;;;;4994525;28;20184;-67
2021/06/17 08:29:12;;;;;;;1999.90;999.90;;;29.40;99.90;;;;;;4994174;28;20196;-66
2021/06/17 08:31:40;;;;;;;1999.90;999.90;;;29.40;99.90;;;;;;4993881;28;20452;-67
2021/06/17 08:34:06;;;;;;;1999.90;999.90;;;29.70;99.90;;;;;;4994012;28;20527;-68
2021/06/17 08:36:31;;;;;;;1999.90;999.90;;;29.80;99.90;;;;;;4994249;28;20434;-67
2021/06/17 08:38:57;;;;;;;1999.90;999.90;;;29.90;99.90;;;;;;4994302;28;20181;-69
2021/06/17 08:41:23;;;;;;;1999.90;999.90;;;30.00;99.90;;;;;;4994117;28;20178;-67
2021/06/17 08:43:50;;;;;;;1999.90;999.90;;;30.10;99.90;;;;;;4993994;28;20251;-68
2021/06/17 08:46:17;;;;;;;1999.90;999.90;;;30.20;99.90;;;;;;4993891;28;20204;-68
2021/06/17 08:48:42;;;;;;;1999.90;999.90;;;30.30;99.90;;;;;;4994095;28;20902;-68
2021/06/17 08:51:08;;;;;;;1999.90;999.90;;;30.30;99.90;;;;;;4993955;28;20464;-65
2021/06/17 08:53:35;;;;;;;1999.90;999.90;;;30.30;99.90;;;;;;4993588;28;20248;-65
2021/06/17 08:56:00;;;;;;;1999.90;999.90;;;30.40;99.90;;;;;;4993429;28;20480;-66
2021/06/17 08:58:26;;;;;;;1999.90;999.90;;;30.50;99.90;;;;;;4993836;28;20441;-66
2021/06/17 09:00:52;;;;;;;1999.90;999.90;;;30.60;99.90;;;;;;4993862;28;20651;-65
2021/06/17 09:03:19;;;;;;;1999.90;999.90;;;30.60;99.90;;;;;;4993861;28;20184;-65
2021/06/17 09:05:50;;;;;;;1999.90;999.90;;;30.50;99.90;;;;;;4993541;28;20197;-65
2021/06/17 09:08:22;;;;;;;1999.90;999.90;;;30.40;99.90;;;;;;4993947;28;20419;-66
2021/06/17 09:10:48;;;;;;;1999.90;999.90;;;30.50;99.90;;;;;;4993673;28;20539;-65
2021/06/17 09:13:14;;;;;;;1999.90;999.90;;;30.50;99.90;;;;;;4993576;28;20500;-66
2021/06/17 09:16:00;;;;;;;1999.90;999.90;;;30.70;99.90;;;;;;4993200;28;20212;-64
2021/06/17 09:18:28;;;;;;;1999.90;999.90;;;30.90;99.90;;;;;;4993425;28;20216;-66
2021/06/17 09:20:58;;;;;;;1999.90;999.90;;;31.10;99.90;;;;;;4993582;28;20423;-65
2021/06/17 09:23:35;;;;;;;1999.90;999.90;;;31.40;99.90;;;;;;4993512;28;20405;-65
2021/06/17 09:26:08;;;;;;;1999.90;999.90;;;31.60;99.90;;;;;;4993069;28;20494;-66
2021/06/17 09:28:46;;;;;;;1999.90;999.90;;;31.80;99.90;;;;;;4993507;28;20408;-66
2021/06/17 09:31:13;;;;;;;1999.90;999.90;;;32.00;99.90;;;;;;4993673;28;20459;-65
2021/06/17 09:33:44;;;;;;;1999.90;999.90;;;32.20;99.90;;;;;;4993263;28;20401;-65
2021/06/17 09:36:10;;;;;;;1999.90;999.90;;;32.30;99.90;;;;;;4993103;28;20428;-64
2021/06/17 09:38:50;;;;;;;1999.90;999.90;;;32.30;99.90;;;;;;4993095;28;20408;-66
2021/06/17 09:41:33;;;;;;;1999.90;999.90;;;32.50;99.90;;;;;;4993295;28;20441;-66
2021/06/17 09:43:59;;;;;;;1999.90;999.90;;;32.60;99.90;;;;;;4992707;28;20404;-65
2021/06/17 09:46:25;;;;;;;1999.90;999.90;;;32.80;99.90;;;;;;4986852;28;20445;-65
2021/06/17 09:48:51;;;;;;;1999.90;999.90;;;33.00;99.90;;;;;;4972917;28;20417;-65
2021/06/17 09:51:25;;;;;;;1999.90;999.90;;;33.20;99.90;;;;;;4966908;28;20280;-66
2021/06/17 09:53:52;;;;;;;1999.90;999.90;;;33.40;99.90;;;;;;4970812;28;20178;-65
2021/06/17 09:56:30;;;;;;;1999.90;999.90;;;33.50;99.90;;;;;;4970987;28;20445;-67
2021/06/17 09:58:56;;;;;;;1999.90;999.90;;;33.50;99.90;;;;;;4971548;28;20409;-67
2021/06/17 10:01:34;;;;;;;1999.90;999.90;;;33.70;99.90;;;;;;4971302;28;20420;-66
2021/06/17 10:04:01;;;;;;;1999.90;999.90;;;33.80;99.90;;;;;;4970798;28;20174;-67
2021/06/17 10:06:28;;;;;;;1999.90;999.90;;;34.00;99.90;;;;;;4971366;28;20434;-66
2021/06/17 10:08:54;;;;;;;1999.90;999.90;;;34.10;99.90;;;;;;4971578;28;20923;-67
2021/06/17 10:11:21;;;;;;;1999.90;999.90;;;34.20;99.90;;;;;;4969322;28;20573;-66
2021/06/17 10:13:48;;;;;;;1999.90;999.90;;;34.40;99.90;;;;;;4971452;28;20896;-67
2021/06/17 10:16:17;;;;;;;1999.90;999.90;;;34.60;99.50;;;;;;4971476;28;20429;-67
2021/06/17 10:18:45;;;;;;;1999.90;999.90;;;34.90;99.90;;;;;;4971336;28;20429;-64
2021/06/17 10:21:13;;;;;;;1999.90;999.90;;;35.10;98.10;;;;;;4971164;28;20424;-64
2021/06/17 10:23:43;;;;;;;1999.90;999.90;;;35.20;97.50;;;;;;4971352;28;20421;-64
2021/06/17 10:26:10;;;;;;;1999.90;999.90;;;35.30;98.30;;;;;;4970676;28;20438;-65
2021/06/17 10:28:41;;;;;;;1999.90;999.90;;;35.30;97.20;;;;;;4971445;28;20418;-64
2021/06/17 10:31:07;;;;;;;1999.90;999.90;;;35.50;97.30;;;;;;4971139;28;20460;-65
2021/06/17 10:33:36;;;;;;;1999.90;999.90;;;35.60;96.70;;;;;;4969447;28;20433;-65
2021/06/17 10:36:22;;;;;;;1999.90;999.90;;;35.80;96.50;;;;;;4970891;28;20434;-65
2021/06/17 10:39:09;;;;;;;1999.90;999.90;;;35.90;96.40;;;;;;4971034;28;20433;-65
2021/06/17 10:41:50;;;;;;;1999.90;999.90;;;35.80;96.40;;;;;;4970541;28;20459;-65
2021/06/17 10:44:53;;;;;;;1999.90;999.90;;;35.80;97.80;;;;;;4970421;28;20421;-63
2021/06/17 10:47:51;;;;;;;1999.90;999.90;;;35.90;96.10;;;;;;4970947;28;21117;-65
2021/06/17 10:50:28;;;;;;;1999.90;999.90;;;35.90;93.70;;;;;;4958875;28;20527;-65
2021/06/17 10:53:21;;;;;;;1999.90;999.90;;;35.90;94.20;;;;;;4971677;28;20426;-64
2021/06/17 10:55:52;;;;;;;1999.90;999.90;;;36.00;94.10;;;;;;4973705;28;20529;-65
2021/06/17 10:58:40;;;;;;;1999.90;999.90;;;36.20;92.60;;;;;;4975072;28;20500;-65
2021/06/17 11:01:26;;;;;;;1999.90;999.90;;;36.20;92.70;;;;;;4974581;28;20795;-65
2021/06/17 11:04:02;;;;;;;1999.90;999.90;;;36.20;92.00;;;;;;4973891;28;20991;-63
2021/06/17 11:06:52;;;;;;;1999.90;999.90;;;36.20;92.40;;;;;;4974849;28;20523;-64
2021/06/17 11:09:43;;;;;;;1999.90;999.90;;;36.10;90.80;;;;;;4974807;28;20412;-64
2021/06/17 11:12:18;;;;;;;1999.90;999.90;;;36.20;90.20;;;;;;4973981;28;20484;-63
2021/06/17 11:14:46;;;;;;;1999.90;999.90;;;36.30;91.00;;;;;;4974327;28;20796;-65
2021/06/17 11:17:27;;;;;;;1999.90;999.90;;;36.50;89.90;;;;;;4974628;28;20410;-64
2021/06/17 11:20:09;;;;;;;1999.90;999.90;;;36.40;85.70;;;;;;4974011;28;20467;-64
2021/06/17 11:22:44;;;;;;;1999.90;999.90;;;36.70;84.00;;;;;;4974115;28;20402;-64
2021/06/17 11:25:15;;;;;;;1999.90;999.90;;;37.00;85.60;;;;;;4973882;28;20421;-65
2021/06/17 11:28:03;;;;;;;1999.90;999.90;;;37.10;84.10;;;;;;4974064;28;20414;-66
2021/06/17 11:30:38;;;;;;;1999.90;999.90;;;37.10;82.90;;;;;;4974068;28;20539;-65
2021/06/17 11:33:19;;;;;;;1999.90;999.90;;;37.20;84.20;;;;;;4973767;28;20409;-65
2021/06/17 11:36:03;;;;;;;1999.90;999.90;;;37.10;81.70;;;;;;4973076;28;21012;-64
2021/06/17 11:38:34;;;;;;;1999.90;999.90;;;37.20;85.90;;;;;;4974212;28;20467;-63
2021/06/17 11:41:09;;;;;;;1999.90;999.90;;;37.30;81.90;;;;;;4973491;28;20406;-65
2021/06/17 11:43:34;;;;;;;1999.90;999.90;;;37.50;81.40;;;;;;4973574;28;20402;-64
2021/06/17 11:46:00;;;;;;;1999.90;999.90;;;37.40;81.40;;;;;;4973051;28;20421;-65
2021/06/17 11:48:27;;;;;;;1999.90;999.90;;;37.60;80.00;;;;;;4973234;28;20185;-65
2021/06/17 11:50:54;;;;;;;1999.90;999.90;;;37.70;80.80;;;;;;4973761;28;20698;-65
2021/06/17 11:53:22;;;;;;;1999.90;999.90;;;37.80;79.80;;;;;;4973776;28;20454;-63
2021/06/17 11:55:49;;;;;;;1999.90;999.90;;;38.00;81.00;;;;;;4972801;28;20821;-64
2021/06/17 11:58:15;;;;;;;1999.90;999.90;;;38.00;77.60;;;;;;4973703;28;20405;-64
2021/06/17 12:00:41;;;;;;;1999.90;999.90;;;37.80;78.40;;;;;;4973549;28;20935;-64
2021/06/17 12:03:19;;;;;;;1999.90;999.90;;;37.70;81.80;;;;;;4972949;28;20171;-65
2021/06/17 12:05:44;;;;;;;1999.90;999.90;;;37.40;76.90;;;;;;4972132;28;20193;-64
2021/06/17 12:08:10;;;;;;;1999.90;999.90;;;37.10;79.60;;;;;;4973579;28;20938;-64
2021/06/17 12:10:37;;;;;;;1999.90;999.90;;;36.80;78.60;;;;;;4972739;28;20197;-64